createdAt,value
2022-08-27T00:00:30.710Z,19.55
2022-08-27T00:03:19.253Z,19.39
2022-08-27T00:06:07.619Z,19.55
2022-08-27T00:08:58.249Z,19.51
2022-08-27T00:11:46.311Z,19.48
2022-08-27T00:14:34.383Z,19.48
2022-08-27T00:17:22.453Z,19.48
2022-08-27T00:20:11.120Z,19.45
2022-08-27T00:22:59.124Z,19.44
2022-08-27T00:25:48.404Z,19.43
2022-08-27T00:28:36.472Z,19.43
2022-08-27T00:31:27.242Z,19.42
2022-08-27T00:34:15.717Z,19.44
2022-08-27T00:37:03.860Z,19.47
2022-08-27T00:39:52.143Z,19.39
2022-08-27T00:42:42.411Z,19.37
2022-08-27T00:45:33.903Z,19.35
2022-08-27T00:48:25.212Z,19.29
2022-08-27T00:51:13.265Z,19.31
2022-08-27T00:54:02.463Z,19.27
2022-08-27T00:56:51.828Z,19.23
2022-08-27T00:59:43.749Z,19.20
2022-08-27T01:02:32.060Z,19.23
2022-08-27T01:05:25.411Z,19.23
2022-08-27T01:08:18.440Z,19.23
2022-08-27T01:11:07.413Z,19.17
2022-08-27T01:14:05.053Z,19.15
2022-08-27T01:16:56.970Z,19.11
2022-08-27T01:19:48.087Z,19.16
2022-08-27T01:22:45.317Z,19.08
2022-08-27T01:25:34.768Z,19.00
2022-08-27T01:28:23.528Z,19.05
2022-08-27T01:31:15.047Z,18.98
2022-08-27T01:34:06.041Z,19.00
2022-08-27T01:36:57.290Z,19.02
2022-08-27T01:39:45.943Z,18.98
2022-08-27T01:42:41.452Z,19.00
2022-08-27T01:45:32.437Z,18.99
2022-08-27T01:48:22.224Z,18.91
2022-08-27T01:51:10.774Z,18.92
2022-08-27T01:53:58.939Z,18.87
2022-08-27T01:56:46.909Z,18.83
2022-08-27T01:59:39.567Z,18.82
2022-08-27T02:02:28.057Z,18.75
2022-08-27T02:05:16.655Z,18.67
2022-08-27T02:08:04.896Z,18.66
2022-08-27T02:10:53.098Z,18.66
2022-08-27T02:13:41.123Z,18.65
2022-08-27T02:16:31.806Z,18.65
2022-08-27T02:19:21.737Z,18.65
2022-08-27T02:22:10.042Z,18.59
2022-08-27T02:24:57.959Z,18.54
2022-08-27T02:27:45.952Z,18.43
2022-08-27T02:30:35.525Z,18.38
2022-08-27T02:33:24.843Z,18.40
2022-08-27T02:36:13.593Z,18.41
2022-08-27T02:39:01.611Z,18.39
2022-08-27T02:41:49.952Z,18.31
2022-08-27T02:44:37.963Z,18.27
2022-08-27T02:47:26.143Z,18.19
2022-08-27T02:50:15.686Z,18.17
2022-08-27T02:53:06.166Z,18.05
2022-08-27T02:55:54.552Z,18.07
2022-08-27T02:58:42.537Z,18.00
2022-08-27T03:01:30.725Z,17.98
2022-08-27T03:04:19.844Z,18.02
2022-08-27T03:07:18.817Z,17.97
2022-08-27T03:10:08.598Z,17.96
2022-08-27T03:12:57.158Z,18.01
2022-08-27T03:15:45.708Z,18.03
2022-08-27T03:18:34.693Z,18.03
2022-08-27T03:21:25.177Z,17.93
2022-08-27T03:24:14.555Z,17.98
2022-08-27T03:27:03.229Z,17.99
2022-08-27T03:29:51.242Z,17.98
2022-08-27T03:32:40.060Z,17.81
2022-08-27T03:35:28.139Z,17.91
2022-08-27T03:38:18.081Z,17.92
2022-08-27T03:41:07.779Z,17.97
2022-08-27T03:43:56.762Z,18.00
2022-08-27T03:46:44.915Z,18.09
2022-08-27T03:49:32.932Z,18.14
2022-08-27T03:52:21.058Z,18.18
2022-08-27T03:55:10.211Z,18.26
2022-08-27T03:58:01.622Z,18.36
2022-08-27T04:00:49.653Z,18.47
2022-08-27T04:03:38.352Z,18.53
2022-08-27T04:06:26.383Z,18.55
2022-08-27T04:09:14.496Z,18.63
2022-08-27T04:12:02.686Z,18.67
2022-08-27T04:14:52.041Z,18.69
2022-08-27T04:17:40.319Z,18.73
2022-08-27T04:20:36.267Z,18.75
2022-08-27T04:23:24.290Z,18.80
2022-08-27T04:26:12.726Z,18.74
2022-08-27T04:29:00.732Z,18.74
2022-08-27T04:31:50.150Z,18.79
2022-08-27T04:34:38.185Z,18.78
2022-08-27T04:37:27.705Z,18.84
2022-08-27T04:40:15.836Z,18.85
2022-08-27T04:43:03.841Z,18.92
2022-08-27T04:45:52.125Z,18.94
2022-08-27T04:48:41.657Z,18.97
2022-08-27T04:51:31.149Z,19.02
2022-08-27T04:54:19.221Z,19.07
2022-08-27T04:57:14.011Z,19.06
2022-08-27T05:00:01.963Z,19.10
2022-08-27T05:02:49.979Z,19.12
2022-08-27T05:05:41.571Z,19.17
2022-08-27T05:08:31.471Z,19.19
2022-08-27T05:11:21.414Z,19.21
2022-08-27T05:14:13.378Z,18.94
2022-08-27T05:17:01.369Z,19.29
2022-08-27T05:19:49.449Z,19.32
2022-08-27T05:22:39.577Z,19.34
2022-08-27T05:25:28.488Z,19.11
2022-08-27T05:28:18.491Z,19.41
2022-08-27T05:31:12.554Z,19.49
2022-08-27T05:34:01.297Z,19.47
2022-08-27T05:36:49.605Z,19.50
2022-08-27T05:39:39.127Z,19.57
2022-08-27T05:42:27.234Z,19.62
2022-08-27T05:45:17.059Z,19.61
2022-08-27T05:48:05.007Z,19.66
2022-08-27T05:50:53.326Z,19.74
2022-08-27T05:53:41.977Z,19.80
2022-08-27T05:56:35.179Z,19.90
2022-08-27T05:59:40.893Z,19.92
2022-08-27T06:02:29.276Z,19.98
2022-08-27T06:05:17.746Z,20.06
2022-08-27T06:08:05.909Z,20.15
2022-08-27T06:10:53.841Z,20.21
2022-08-27T06:13:43.539Z,20.25
2022-08-27T06:16:32.548Z,20.27
2022-08-27T06:19:20.663Z,20.26
2022-08-27T06:22:10.399Z,20.40
2022-08-27T06:24:58.725Z,20.53
2022-08-27T06:27:46.886Z,20.58
2022-08-27T06:30:36.482Z,20.72
2022-08-27T06:33:24.497Z,20.81
2022-08-27T06:36:15.495Z,20.70
2022-08-27T06:39:03.673Z,20.84
2022-08-27T06:41:51.946Z,21.08
2022-08-27T06:44:42.932Z,21.10
2022-08-27T06:47:34.313Z,21.65
2022-08-27T06:50:26.697Z,21.83
2022-08-27T06:53:15.594Z,21.99
2022-08-27T06:56:05.001Z,21.88
2022-08-27T06:58:54.010Z,22.00
2022-08-27T07:01:44.832Z,21.92
2022-08-27T07:04:34.263Z,21.91
2022-08-27T07:07:32.659Z,21.81
2022-08-27T07:10:24.793Z,21.88
2022-08-27T07:13:12.892Z,21.89
2022-08-27T07:16:06.405Z,21.18
2022-08-27T07:18:56.665Z,21.69
2022-08-27T07:21:48.813Z,21.67
2022-08-27T07:24:37.521Z,21.55
2022-08-27T07:27:25.556Z,21.45
2022-08-27T07:30:15.317Z,21.46
2022-08-27T07:33:03.433Z,21.43
2022-08-27T07:35:52.014Z,21.44
2022-08-27T07:38:41.404Z,21.43
2022-08-27T07:41:31.889Z,21.45
2022-08-27T07:44:26.057Z,21.54
2022-08-27T07:47:14.439Z,21.61
2022-08-27T07:50:02.455Z,21.70
2022-08-27T07:52:50.866Z,21.53
2022-08-27T07:55:40.352Z,21.54
2022-08-27T07:58:28.287Z,21.73
2022-08-27T08:01:17.836Z,21.82
2022-08-27T08:04:05.891Z,21.86
2022-08-27T08:06:55.419Z,22.00
2022-08-27T08:09:43.411Z,22.18
2022-08-27T08:12:32.688Z,22.17
2022-08-27T08:15:21.270Z,22.14
2022-08-27T08:18:09.373Z,22.24
2022-08-27T08:21:01.654Z,22.33
2022-08-27T08:23:49.968Z,22.64
2022-08-27T08:26:37.966Z,22.93
2022-08-27T08:29:27.312Z,23.12
2022-08-27T08:32:15.625Z,22.93
2022-08-27T08:35:04.326Z,22.90
2022-08-27T08:37:52.478Z,23.14
2022-08-27T08:40:43.167Z,23.42
2022-08-27T08:43:34.426Z,23.65
2022-08-27T08:46:33.050Z,23.85
2022-08-27T08:49:42.804Z,24.07
2022-08-27T08:52:42.142Z,24.53
2022-08-27T08:55:49.109Z,24.59
2022-08-27T08:58:45.044Z,24.31
2022-08-27T09:01:35.239Z,24.06
2022-08-27T09:04:26.620Z,23.87
2022-08-27T09:07:22.821Z,23.86
2022-08-27T09:10:16.831Z,23.70
2022-08-27T09:13:08.247Z,23.90
2022-08-27T09:15:59.657Z,24.23
2022-08-27T09:18:51.141Z,24.77
2022-08-27T09:21:52.358Z,24.85
2022-08-27T09:24:52.702Z,24.97
2022-08-27T09:27:43.886Z,24.95
2022-08-27T09:30:42.859Z,24.78
2022-08-27T09:33:43.743Z,24.74
2022-08-27T09:36:52.295Z,25.06
2022-08-27T09:39:48.271Z,25.31
2022-08-27T09:42:40.133Z,25.37
2022-08-27T09:45:30.763Z,24.73
2022-08-27T09:48:21.301Z,24.66
2022-08-27T09:51:12.597Z,24.35
2022-08-27T09:54:04.240Z,24.29
2022-08-27T09:56:52.278Z,24.66
2022-08-27T09:59:53.795Z,24.77
2022-08-27T10:02:50.887Z,24.83
2022-08-27T10:05:43.717Z,25.17
2022-08-27T10:08:39.656Z,25.38
2022-08-27T10:11:33.693Z,25.83
2022-08-27T10:14:27.374Z,25.92
2022-08-27T10:17:25.067Z,25.87
2022-08-27T10:20:20.350Z,25.75
2022-08-27T10:23:26.496Z,25.87
2022-08-27T10:26:21.654Z,25.77
2022-08-27T10:29:22.042Z,25.96
2022-08-27T10:32:25.548Z,26.05
2022-08-27T10:35:17.818Z,26.09
2022-08-27T10:38:14.754Z,26.38
2022-08-27T10:41:09.645Z,26.28
2022-08-27T10:44:16.832Z,25.91
2022-08-27T10:47:13.927Z,25.62
2022-08-27T10:50:06.570Z,26.06
2022-08-27T10:53:00.794Z,26.42
2022-08-27T10:55:53.076Z,26.55
2022-08-27T10:58:50.983Z,26.76
2022-08-27T11:01:49.129Z,26.43
2022-08-27T11:04:42.667Z,26.12
2022-08-27T11:07:33.424Z,26.24
2022-08-27T11:10:26.454Z,26.20
2022-08-27T11:13:20.274Z,26.23
2022-08-27T11:16:17.126Z,26.39
2022-08-27T11:19:13.946Z,26.38
2022-08-27T11:22:12.290Z,26.31
2022-08-27T11:25:15.017Z,26.41
2022-08-27T11:28:05.586Z,26.40
2022-08-27T11:31:00.709Z,26.30
2022-08-27T11:33:58.069Z,26.36
2022-08-27T11:37:07.745Z,26.39
2022-08-27T11:40:18.759Z,26.34
2022-08-27T11:43:10.301Z,25.98
2022-08-27T11:46:01.154Z,26.43
2022-08-27T11:48:59.044Z,26.48
2022-08-27T11:51:59.825Z,26.35
2022-08-27T11:54:50.945Z,26.38
2022-08-27T11:57:40.125Z,26.51
2022-08-27T12:00:33.456Z,26.58
2022-08-27T12:03:29.209Z,26.91
2022-08-27T12:06:26.598Z,26.67
2022-08-27T12:09:20.379Z,26.63
2022-08-27T12:12:16.338Z,26.63
2022-08-27T12:15:07.207Z,26.62
2022-08-27T12:18:01.144Z,26.52
2022-08-27T12:20:58.714Z,26.64
2022-08-27T12:23:57.596Z,26.64
2022-08-27T12:26:58.605Z,26.71
2022-08-27T12:29:50.777Z,27.00
2022-08-27T12:32:40.960Z,27.08
2022-08-27T12:35:34.067Z,26.80
2022-08-27T12:38:34.920Z,26.84
2022-08-27T12:41:28.677Z,26.69
2022-08-27T12:44:25.884Z,26.44
2022-08-27T12:47:16.949Z,26.62
2022-08-27T12:50:07.278Z,26.60
2022-08-27T12:53:18.001Z,26.70
2022-08-27T12:56:39.728Z,26.72
2022-08-27T12:59:54.911Z,26.60
2022-08-27T13:03:19.751Z,26.49
2022-08-27T13:06:17.912Z,26.61
2022-08-27T13:09:08.515Z,26.67
2022-08-27T13:11:57.487Z,26.46
2022-08-27T13:14:49.646Z,26.44
2022-08-27T13:17:47.239Z,26.47
2022-08-27T13:20:38.584Z,26.56
2022-08-27T13:23:28.002Z,26.82
2022-08-27T13:26:21.796Z,26.80
2022-08-27T13:29:10.483Z,26.65
2022-08-27T13:32:01.394Z,26.85
2022-08-27T13:34:50.483Z,27.01
2022-08-27T13:37:44.573Z,27.01
2022-08-27T13:40:34.917Z,27.09
2022-08-27T13:43:31.433Z,27.16
2022-08-27T13:46:24.784Z,27.31
2022-08-27T13:49:22.384Z,27.48
2022-08-27T13:52:24.318Z,27.42
2022-08-27T13:55:17.287Z,27.60
2022-08-27T13:58:14.939Z,27.43
2022-08-27T14:01:12.191Z,27.33
2022-08-27T14:04:04.082Z,27.30
2022-08-27T14:06:56.119Z,27.18
2022-08-27T14:09:54.213Z,27.22
2022-08-27T14:12:43.213Z,27.07
2022-08-27T14:15:34.143Z,27.09
2022-08-27T14:18:37.116Z,26.96
2022-08-27T14:21:35.102Z,26.96
2022-08-27T14:24:24.463Z,26.90
2022-08-27T14:27:15.968Z,27.02
2022-08-27T14:30:05.447Z,27.08
2022-08-27T14:32:56.253Z,26.71
2022-08-27T14:35:46.144Z,26.57
2022-08-27T14:38:41.039Z,26.70
2022-08-27T14:41:30.515Z,26.81
2022-08-27T14:44:21.154Z,26.77
2022-08-27T14:47:10.520Z,26.88
2022-08-27T14:49:58.822Z,26.71
2022-08-27T14:52:46.744Z,26.64
2022-08-27T14:55:34.729Z,26.66
2022-08-27T14:58:24.033Z,26.66
2022-08-27T15:01:12.703Z,26.52
2022-08-27T15:04:00.660Z,27.22
2022-08-27T15:06:48.579Z,27.37
2022-08-27T15:09:36.708Z,27.42
2022-08-27T15:12:26.604Z,27.83
2022-08-27T15:15:17.420Z,27.68
2022-08-27T15:18:05.806Z,27.79
2022-08-27T15:20:53.881Z,28.13
2022-08-27T15:23:42.066Z,28.44
2022-08-27T15:26:30.653Z,28.49
2022-08-27T15:29:18.791Z,28.26
2022-08-27T15:32:11.331Z,27.90
2022-08-27T15:35:01.982Z,28.09
2022-08-27T15:37:50.381Z,27.68
2022-08-27T15:40:38.501Z,27.68
2022-08-27T15:43:27.554Z,27.54
2022-08-27T15:46:15.726Z,27.77
2022-08-27T15:49:06.438Z,27.78
2022-08-27T15:51:55.362Z,27.54
2022-08-27T15:54:49.076Z,27.45
2022-08-27T15:57:37.082Z,27.68
2022-08-27T16:00:26.050Z,27.56
2022-08-27T16:03:15.791Z,27.43
2022-08-27T16:06:06.067Z,27.53
2022-08-27T16:08:54.210Z,27.34
2022-08-27T16:11:42.231Z,27.33
2022-08-27T16:14:30.485Z,27.12
2022-08-27T16:17:21.023Z,26.97
2022-08-27T16:20:12.333Z,26.82
2022-08-27T16:23:01.788Z,26.62
2022-08-27T16:25:49.830Z,26.38
2022-08-27T16:28:38.204Z,26.00
2022-08-27T16:31:26.385Z,25.87
2022-08-27T16:34:17.747Z,25.75
2022-08-27T16:37:05.794Z,25.79
2022-08-27T16:39:55.180Z,25.96
2022-08-27T16:42:45.694Z,26.10
2022-08-27T16:45:33.663Z,26.08
2022-08-27T16:48:39.536Z,26.06
2022-08-27T16:51:32.678Z,26.15
2022-08-27T16:54:22.474Z,26.23
2022-08-27T16:57:11.846Z,25.95
2022-08-27T16:59:59.837Z,26.04
2022-08-27T17:02:48.209Z,25.76
2022-08-27T17:05:36.375Z,25.55
2022-08-27T17:08:27.266Z,25.58
2022-08-27T17:11:17.552Z,25.56
2022-08-27T17:14:07.673Z,25.54
2022-08-27T17:16:55.677Z,25.40
2022-08-27T17:19:43.763Z,25.10
2022-08-27T17:22:31.849Z,25.15
2022-08-27T17:25:20.068Z,24.95
2022-08-27T17:28:10.443Z,24.73
2022-08-27T17:31:02.048Z,24.62
2022-08-27T17:33:53.081Z,24.37
2022-08-27T17:36:41.080Z,24.22
2022-08-27T17:39:32.497Z,24.15
2022-08-27T17:42:20.508Z,23.98
2022-08-27T17:45:10.048Z,23.84
2022-08-27T17:47:59.699Z,23.81
2022-08-27T17:50:53.907Z,23.60
2022-08-27T17:53:47.033Z,23.58
2022-08-27T17:56:37.081Z,23.53
2022-08-27T17:59:26.073Z,23.38
2022-08-27T18:02:21.179Z,23.18
2022-08-27T18:05:13.088Z,23.01
2022-08-27T18:08:01.237Z,22.88
2022-08-27T18:10:49.404Z,22.72
2022-08-27T18:13:37.676Z,22.57
2022-08-27T18:16:25.821Z,22.37
2022-08-27T18:19:14.224Z,22.28
2022-08-27T18:22:04.186Z,22.25
2022-08-27T18:24:52.142Z,22.08
2022-08-27T18:27:43.770Z,21.98
2022-08-27T18:30:32.159Z,21.86
2022-08-27T18:33:20.188Z,21.75
2022-08-27T18:36:08.641Z,21.61
2022-08-27T18:38:58.070Z,21.47
2022-08-27T18:41:46.189Z,21.35
2022-08-27T18:44:37.440Z,21.27
2022-08-27T18:47:25.554Z,21.23
2022-08-27T18:50:17.313Z,21.17
2022-08-27T18:53:05.809Z,21.22
2022-08-27T18:55:55.524Z,21.24
2022-08-27T18:58:43.589Z,21.24
2022-08-27T19:01:31.868Z,21.29
2022-08-27T19:04:20.040Z,21.31
2022-08-27T19:07:08.275Z,21.33
2022-08-27T19:09:56.483Z,21.34
2022-08-27T19:12:46.810Z,21.39
2022-08-27T19:15:35.160Z,21.27
2022-08-27T19:18:26.058Z,21.23
2022-08-27T19:21:14.263Z,21.22
2022-08-27T19:24:04.186Z,21.31
2022-08-27T19:26:53.454Z,21.25
2022-08-27T19:29:42.879Z,20.90
2022-08-27T19:32:31.063Z,21.40
2022-08-27T19:35:19.395Z,21.42
2022-08-27T19:38:08.746Z,21.43
2022-08-27T19:40:57.129Z,21.44
2022-08-27T19:43:45.944Z,21.42
2022-08-27T19:46:37.766Z,21.42
2022-08-27T19:49:26.052Z,21.38
2022-08-27T19:52:14.452Z,21.28
2022-08-27T19:55:13.743Z,21.23
2022-08-27T19:58:02.373Z,21.18
2022-08-27T20:00:50.365Z,21.12
2022-08-27T20:03:39.889Z,21.02
2022-08-27T20:06:28.311Z,21.04
2022-08-27T20:09:17.911Z,20.99
2022-08-27T20:12:06.348Z,20.94
2022-08-27T20:14:54.330Z,20.91
2022-08-27T20:17:43.978Z,20.88
2022-08-27T20:20:35.221Z,20.79
2022-08-27T20:23:23.247Z,20.84
2022-08-27T20:26:13.254Z,20.79
2022-08-27T20:29:02.213Z,20.64
2022-08-27T20:31:50.736Z,20.71
2022-08-27T20:34:38.743Z,20.79
2022-08-27T20:37:28.059Z,20.78
2022-08-27T20:40:19.443Z,20.77
2022-08-27T20:43:07.531Z,20.76
2022-08-27T20:45:55.584Z,20.71
2022-08-27T20:48:43.673Z,20.68
2022-08-27T20:51:31.934Z,20.73
2022-08-27T20:54:41.772Z,20.81
2022-08-27T20:57:29.900Z,20.79
2022-08-27T21:00:20.170Z,20.78
2022-08-27T21:03:08.420Z,20.83
2022-08-27T21:05:56.419Z,20.80
2022-08-27T21:08:44.431Z,20.87
2022-08-27T21:11:33.975Z,20.90
2022-08-27T21:14:21.942Z,20.91
2022-08-27T21:17:11.617Z,20.65
2022-08-27T21:19:59.775Z,20.95
2022-08-27T21:22:47.787Z,21.01
2022-08-27T21:25:36.097Z,21.01
2022-08-27T21:28:25.383Z,20.99
2022-08-27T21:31:13.482Z,20.99
2022-08-27T21:34:01.526Z,20.92
2022-08-27T21:36:49.540Z,20.91
2022-08-27T21:39:37.731Z,20.88
2022-08-27T21:42:25.771Z,20.88
2022-08-27T21:45:15.643Z,20.90
2022-08-27T21:48:07.921Z,20.87
2022-08-27T21:50:56.418Z,20.74
2022-08-27T21:53:45.322Z,20.75
2022-08-27T21:56:33.357Z,20.73
2022-08-27T21:59:21.820Z,20.80
2022-08-27T22:02:35.757Z,20.77
2022-08-27T22:05:19.664Z,20.73
2022-08-27T22:08:08.006Z,20.55
2022-08-27T22:10:58.709Z,20.54
2022-08-27T22:13:47.124Z,20.55
2022-08-27T22:16:35.181Z,20.48
2022-08-27T22:19:24.773Z,20.50
2022-08-27T22:22:12.751Z,20.48
2022-08-27T22:25:00.809Z,20.44
2022-08-27T22:27:48.803Z,20.30
2022-08-27T22:30:36.894Z,20.20
2022-08-27T22:33:24.996Z,20.27
2022-08-27T22:36:14.331Z,20.24
2022-08-27T22:39:03.747Z,20.21
2022-08-27T22:41:52.364Z,20.13
2022-08-27T22:44:40.432Z,19.89
2022-08-27T22:47:28.670Z,19.97
2022-08-27T22:50:17.007Z,19.93
2022-08-27T22:53:06.370Z,19.86
2022-08-27T22:55:56.231Z,19.84
2022-08-27T22:58:46.242Z,19.82
2022-08-27T23:01:36.249Z,19.85
2022-08-27T23:04:39.165Z,19.88
2022-08-27T23:07:33.550Z,19.84
2022-08-27T23:10:25.047Z,19.79
2022-08-27T23:13:14.031Z,19.80
2022-08-27T23:16:03.006Z,19.84
2022-08-27T23:18:51.147Z,19.95
2022-08-27T23:21:39.223Z,19.98
2022-08-27T23:24:27.313Z,20.02
2022-08-27T23:27:30.640Z,20.07
2022-08-27T23:30:19.242Z,20.06
2022-08-27T23:33:07.272Z,20.04
2022-08-27T23:35:55.259Z,20.06
2022-08-27T23:38:43.306Z,20.16
2022-08-27T23:41:31.273Z,20.08
2022-08-27T23:44:20.621Z,20.12
2022-08-27T23:47:08.660Z,20.12
2022-08-27T23:49:56.642Z,20.16
2022-08-27T23:52:44.826Z,20.13
2022-08-27T23:55:33.432Z,20.13
2022-08-27T23:58:21.677Z,20.19
